sensor_id;sensor_type;location;lat;lon;timestamp;pressure;altitude;pressure_sealevel;temperature;humidity
69127;BME280;56688;50.234;19.292;2022-12-07T00:01:14;98094.55;;;1.72;86.20
69127;BME280;56688;50.234;19.292;2022-12-07T00:03:42;98093.11;;;1.76;86.40
69127;BME280;56688;50.234;19.292;2022-12-07T00:06:11;98090.84;;;1.80;86.43
69127;BME280;56688;50.234;19.292;2022-12-07T00:08:38;98089.35;;;1.80;86.40
69127;BME280;56688;50.234;19.292;2022-12-07T00:11:08;98087.17;;;1.79;86.05
69127;BME280;56688;50.234;19.292;2022-12-07T00:13:35;98091.30;;;1.80;86.18
69127;BME280;56688;50.234;19.292;2022-12-07T00:16:06;98096.24;;;1.82;86.08
69127;BME280;56688;50.234;19.292;2022-12-07T00:18:33;98094.30;;;1.82;85.79
69127;BME280;56688;50.234;19.292;2022-12-07T00:21:02;98093.15;;;1.79;85.79
69127;BME280;56688;50.234;19.292;2022-12-07T00:23:30;98092.28;;;1.83;86.15
69127;BME280;56688;50.234;19.292;2022-12-07T00:26:03;98089.95;;;1.81;86.00
69127;BME280;56688;50.234;19.292;2022-12-07T00:28:30;98086.40;;;1.78;85.79
69127;BME280;56688;50.234;19.292;2022-12-07T00:31:03;98081.02;;;1.77;85.75
69127;BME280;56688;50.234;19.292;2022-12-07T00:33:31;98084.25;;;1.77;86.07
69127;BME280;56688;50.234;19.292;2022-12-07T00:35:59;98084.86;;;1.78;85.75
69127;BME280;56688;50.234;19.292;2022-12-07T00:38:29;98085.25;;;1.78;85.94
69127;BME280;56688;50.234;19.292;2022-12-07T00:40:58;98083.34;;;1.77;85.78
69127;BME280;56688;50.234;19.292;2022-12-07T00:43:26;98082.30;;;1.77;85.47
69127;BME280;56688;50.234;19.292;2022-12-07T00:45:54;98076.59;;;1.74;85.70
69127;BME280;56688;50.234;19.292;2022-12-07T00:48:21;98077.61;;;1.71;85.27
69127;BME280;56688;50.234;19.292;2022-12-07T00:50:49;98074.97;;;1.67;85.40
69127;BME280;56688;50.234;19.292;2022-12-07T00:53:16;98075.33;;;1.63;84.96
69127;BME280;56688;50.234;19.292;2022-12-07T00:55:44;98073.15;;;1.60;85.16
69127;BME280;56688;50.234;19.292;2022-12-07T00:58:10;98073.31;;;1.56;85.23
69127;BME280;56688;50.234;19.292;2022-12-07T01:00:40;98071.95;;;1.52;85.28
69127;BME280;56688;50.234;19.292;2022-12-07T01:03:09;98072.22;;;1.49;85.28
69127;BME280;56688;50.234;19.292;2022-12-07T01:05:36;98070.69;;;1.47;85.27
69127;BME280;56688;50.234;19.292;2022-12-07T01:08:04;98069.20;;;1.46;85.33
69127;BME280;56688;50.234;19.292;2022-12-07T01:10:31;98066.12;;;1.45;85.33
69127;BME280;56688;50.234;19.292;2022-12-07T01:12:58;98063.38;;;1.44;85.32
69127;BME280;56688;50.234;19.292;2022-12-07T01:15:26;98062.55;;;1.44;85.50
69127;BME280;56688;50.234;19.292;2022-12-07T01:17:53;98059.27;;;1.41;85.45
69127;BME280;56688;50.234;19.292;2022-12-07T01:20:21;98054.79;;;1.39;85.70
69127;BME280;56688;50.234;19.292;2022-12-07T01:22:48;98058.11;;;1.41;85.72
69127;BME280;56688;50.234;19.292;2022-12-07T01:25:15;98057.00;;;1.42;85.92
69127;BME280;56688;50.234;19.292;2022-12-07T01:27:42;98059.39;;;1.44;85.84
69127;BME280;56688;50.234;19.292;2022-12-07T01:30:10;98058.00;;;1.46;86.06
69127;BME280;56688;50.234;19.292;2022-12-07T01:32:37;98057.29;;;1.46;86.14
69127;BME280;56688;50.234;19.292;2022-12-07T01:35:04;98052.55;;;1.44;86.04
69127;BME280;56688;50.234;19.292;2022-12-07T01:37:36;98055.45;;;1.45;85.96
69127;BME280;56688;50.234;19.292;2022-12-07T01:40:05;98054.30;;;1.48;86.05
69127;BME280;56688;50.234;19.292;2022-12-07T01:42:33;98051.35;;;1.51;86.14
69127;BME280;56688;50.234;19.292;2022-12-07T01:47:46;98048.30;;;1.59;86.21
69127;BME280;56688;50.234;19.292;2022-12-07T01:50:15;98045.75;;;1.64;86.25
69127;BME280;56688;50.234;19.292;2022-12-07T01:52:43;98041.98;;;1.66;86.13
69127;BME280;56688;50.234;19.292;2022-12-07T01:55:13;98044.59;;;1.67;86.20
69127;BME280;56688;50.234;19.292;2022-12-07T01:57:44;98040.23;;;1.66;86.08
69127;BME280;56688;50.234;19.292;2022-12-07T02:00:12;98042.61;;;1.70;86.29
69127;BME280;56688;50.234;19.292;2022-12-07T02:02:55;98038.92;;;1.73;86.28
69127;BME280;56688;50.234;19.292;2022-12-07T02:05:24;98040.10;;;1.79;86.17
69127;BME280;56688;50.234;19.292;2022-12-07T02:07:53;98038.45;;;1.82;86.11
69127;BME280;56688;50.234;19.292;2022-12-07T02:10:24;98036.61;;;1.85;85.99
69127;BME280;56688;50.234;19.292;2022-12-07T02:15:38;98039.23;;;1.83;85.97
69127;BME280;56688;50.234;19.292;2022-12-07T02:18:27;98038.23;;;1.84;85.91
69127;BME280;56688;50.234;19.292;2022-12-07T02:21:20;98037.57;;;1.87;85.96
69127;BME280;56688;50.234;19.292;2022-12-07T02:24:14;98036.84;;;1.95;85.99
69127;BME280;56688;50.234;19.292;2022-12-07T02:29:23;98037.82;;;2.00;85.71
69127;BME280;56688;50.234;19.292;2022-12-07T02:32:09;98042.77;;;1.98;85.54
69127;BME280;56688;50.234;19.292;2022-12-07T02:37:22;98032.77;;;1.99;85.87
69127;BME280;56688;50.234;19.292;2022-12-07T02:40:00;98030.09;;;2.05;85.99
69127;BME280;56688;50.234;19.292;2022-12-07T02:42:33;98027.52;;;2.14;85.91
69127;BME280;56688;50.234;19.292;2022-12-07T02:45:04;98026.69;;;2.15;85.62
69127;BME280;56688;50.234;19.292;2022-12-07T02:47:33;98026.45;;;2.13;85.25
69127;BME280;56688;50.234;19.292;2022-12-07T02:50:04;98027.09;;;2.14;85.66
69127;BME280;56688;50.234;19.292;2022-12-07T02:52:31;98023.97;;;2.16;85.63
69127;BME280;56688;50.234;19.292;2022-12-07T02:54:58;98021.20;;;2.19;85.42
69127;BME280;56688;50.234;19.292;2022-12-07T03:08:13;98013.54;;;2.30;84.92
69127;BME280;56688;50.234;19.292;2022-12-07T03:11:03;98013.42;;;2.20;84.75
69127;BME280;56688;50.234;19.292;2022-12-07T03:13:38;98021.14;;;2.18;84.81
69127;BME280;56688;50.234;19.292;2022-12-07T03:16:22;98019.39;;;2.16;84.96
69127;BME280;56688;50.234;19.292;2022-12-07T03:18:58;98015.63;;;2.18;84.79
69127;BME280;56688;50.234;19.292;2022-12-07T03:21:31;98015.30;;;2.20;84.81
69127;BME280;56688;50.234;19.292;2022-12-07T03:24:04;98013.66;;;2.17;85.01
69127;BME280;56688;50.234;19.292;2022-12-07T03:26:34;98015.80;;;2.15;84.94
69127;BME280;56688;50.234;19.292;2022-12-07T03:29:07;98014.92;;;2.13;85.21
69127;BME280;56688;50.234;19.292;2022-12-07T03:31:40;98009.48;;;2.11;84.98
69127;BME280;56688;50.234;19.292;2022-12-07T03:36:46;98011.70;;;2.12;85.34
69127;BME280;56688;50.234;19.292;2022-12-07T03:41:46;98011.19;;;2.12;85.24
69127;BME280;56688;50.234;19.292;2022-12-07T03:44:15;98006.05;;;2.09;85.15
69127;BME280;56688;50.234;19.292;2022-12-07T03:46:49;98001.21;;;2.04;85.12
69127;BME280;56688;50.234;19.292;2022-12-07T03:55:05;97998.89;;;2.01;85.28
69127;BME280;56688;50.234;19.292;2022-12-07T03:57:36;97996.08;;;1.99;85.28
69127;BME280;56688;50.234;19.292;2022-12-07T04:00:05;97997.91;;;1.94;85.19
69127;BME280;56688;50.234;19.292;2022-12-07T04:02:37;97998.94;;;1.95;85.26
69127;BME280;56688;50.234;19.292;2022-12-07T04:05:06;98000.27;;;1.92;85.33
69127;BME280;56688;50.234;19.292;2022-12-07T04:07:33;98000.08;;;1.90;85.46
69127;BME280;56688;50.234;19.292;2022-12-07T04:10:00;98002.36;;;1.90;85.48
69127;BME280;56688;50.234;19.292;2022-12-07T04:12:27;98001.44;;;1.90;85.46
69127;BME280;56688;50.234;19.292;2022-12-07T04:14:54;98003.56;;;1.92;85.71
69127;BME280;56688;50.234;19.292;2022-12-07T04:17:21;97999.49;;;1.94;85.65
69127;BME280;56688;50.234;19.292;2022-12-07T04:19:47;97998.42;;;1.96;85.63
69127;BME280;56688;50.234;19.292;2022-12-07T04:22:14;98002.27;;;1.95;85.78
69127;BME280;56688;50.234;19.292;2022-12-07T04:24:41;98002.69;;;1.94;85.61
69127;BME280;56688;50.234;19.292;2022-12-07T04:27:08;98000.81;;;1.94;85.57
69127;BME280;56688;50.234;19.292;2022-12-07T04:29:34;97999.02;;;1.92;85.62
69127;BME280;56688;50.234;19.292;2022-12-07T04:32:01;97995.84;;;1.94;85.78
69127;BME280;56688;50.234;19.292;2022-12-07T04:34:28;98000.37;;;1.96;85.54
69127;BME280;56688;50.234;19.292;2022-12-07T04:36:55;97999.17;;;1.96;85.64
69127;BME280;56688;50.234;19.292;2022-12-07T04:39:25;98001.14;;;1.94;85.48
69127;BME280;56688;50.234;19.292;2022-12-07T04:41:52;98002.55;;;1.92;85.57
69127;BME280;56688;50.234;19.292;2022-12-07T04:44:20;98001.11;;;1.88;85.43
69127;BME280;56688;50.234;19.292;2022-12-07T04:46:48;98002.80;;;1.87;85.37
69127;BME280;56688;50.234;19.292;2022-12-07T04:49:15;98001.27;;;1.90;85.36
69127;BME280;56688;50.234;19.292;2022-12-07T04:51:43;98001.21;;;1.91;85.42
69127;BME280;56688;50.234;19.292;2022-12-07T04:54:12;98005.50;;;1.92;85.57
69127;BME280;56688;50.234;19.292;2022-12-07T04:56:39;98002.96;;;1.91;85.56
69127;BME280;56688;50.234;19.292;2022-12-07T04:59:06;98002.49;;;1.90;85.28
69127;BME280;56688;50.234;19.292;2022-12-07T05:01:34;98003.53;;;1.89;85.23
69127;BME280;56688;50.234;19.292;2022-12-07T05:04:00;98002.84;;;1.89;85.28
69127;BME280;56688;50.234;19.292;2022-12-07T05:06:27;98006.35;;;1.87;85.15
69127;BME280;56688;50.234;19.292;2022-12-07T05:08:54;98004.23;;;1.84;85.32
69127;BME280;56688;50.234;19.292;2022-12-07T05:11:21;98003.58;;;1.79;84.92
69127;BME280;56688;50.234;19.292;2022-12-07T05:14:14;98006.82;;;1.73;84.82
69127;BME280;56688;50.234;19.292;2022-12-07T05:16:44;98011.43;;;1.66;84.84
69127;BME280;56688;50.234;19.292;2022-12-07T05:19:11;98013.22;;;1.62;84.61
69127;BME280;56688;50.234;19.292;2022-12-07T05:21:39;98014.05;;;1.61;84.40
69127;BME280;56688;50.234;19.292;2022-12-07T05:24:07;98017.18;;;1.60;84.66
69127;BME280;56688;50.234;19.292;2022-12-07T05:26:34;98015.39;;;1.56;84.60
69127;BME280;56688;50.234;19.292;2022-12-07T05:29:01;98019.05;;;1.53;84.53
69127;BME280;56688;50.234;19.292;2022-12-07T05:31:28;98017.69;;;1.49;84.64
69127;BME280;56688;50.234;19.292;2022-12-07T05:33:55;98020.95;;;1.46;84.60
69127;BME280;56688;50.234;19.292;2022-12-07T05:36:22;98023.42;;;1.44;84.64
69127;BME280;56688;50.234;19.292;2022-12-07T05:38:49;98021.24;;;1.43;84.82
69127;BME280;56688;50.234;19.292;2022-12-07T05:41:17;98016.80;;;1.43;85.04
69127;BME280;56688;50.234;19.292;2022-12-07T05:44:00;98012.92;;;1.44;84.96
69127;BME280;56688;50.234;19.292;2022-12-07T05:46:27;98012.73;;;1.44;85.06
69127;BME280;56688;50.234;19.292;2022-12-07T05:48:53;98011.13;;;1.44;84.95
69127;BME280;56688;50.234;19.292;2022-12-07T05:51:20;98008.73;;;1.40;85.09
69127;BME280;56688;50.234;19.292;2022-12-07T05:53:47;98009.23;;;1.38;85.16
69127;BME280;56688;50.234;19.292;2022-12-07T05:56:14;98008.20;;;1.37;85.18
69127;BME280;56688;50.234;19.292;2022-12-07T05:58:41;98007.52;;;1.37;85.25
69127;BME280;56688;50.234;19.292;2022-12-07T06:01:23;98011.75;;;1.37;85.03
69127;BME280;56688;50.234;19.292;2022-12-07T06:03:50;98009.84;;;1.37;85.12
69127;BME280;56688;50.234;19.292;2022-12-07T06:06:17;98011.20;;;1.35;85.03
69127;BME280;56688;50.234;19.292;2022-12-07T06:08:44;98012.91;;;1.32;85.13
69127;BME280;56688;50.234;19.292;2022-12-07T06:11:10;98011.75;;;1.30;85.09
69127;BME280;56688;50.234;19.292;2022-12-07T06:13:53;98010.88;;;1.27;85.13
69127;BME280;56688;50.234;19.292;2022-12-07T06:16:19;98012.44;;;1.28;85.47
69127;BME280;56688;50.234;19.292;2022-12-07T06:18:46;98012.80;;;1.28;85.54
69127;BME280;56688;50.234;19.292;2022-12-07T06:21:13;98018.48;;;1.27;85.38
69127;BME280;56688;50.234;19.292;2022-12-07T06:23:40;98019.52;;;1.25;85.55
69127;BME280;56688;50.234;19.292;2022-12-07T06:26:08;98020.36;;;1.24;85.26
69127;BME280;56688;50.234;19.292;2022-12-07T06:28:35;98025.56;;;1.25;85.49
69127;BME280;56688;50.234;19.292;2022-12-07T06:31:02;98023.14;;;1.24;85.62
69127;BME280;56688;50.234;19.292;2022-12-07T06:33:29;98023.77;;;1.27;85.45
69127;BME280;56688;50.234;19.292;2022-12-07T06:35:55;98022.75;;;1.26;85.83
69127;BME280;56688;50.234;19.292;2022-12-07T06:38:22;98026.60;;;1.26;85.71
69127;BME280;56688;50.234;19.292;2022-12-07T06:40:49;98032.28;;;1.26;85.69
69127;BME280;56688;50.234;19.292;2022-12-07T06:43:16;98032.61;;;1.26;85.66
69127;BME280;56688;50.234;19.292;2022-12-07T06:45:42;98034.96;;;1.27;85.69
69127;BME280;56688;50.234;19.292;2022-12-07T06:48:10;98034.56;;;1.29;85.86
69127;BME280;56688;50.234;19.292;2022-12-07T06:50:37;98035.99;;;1.31;85.87
69127;BME280;56688;50.234;19.292;2022-12-07T06:53:03;98039.56;;;1.32;85.86
69127;BME280;56688;50.234;19.292;2022-12-07T06:55:30;98039.70;;;1.33;85.83
69127;BME280;56688;50.234;19.292;2022-12-07T06:57:57;98040.50;;;1.34;85.76
69127;BME280;56688;50.234;19.292;2022-12-07T07:00:24;98039.70;;;1.33;85.61
69127;BME280;56688;50.234;19.292;2022-12-07T07:02:51;98041.44;;;1.35;85.94
69127;BME280;56688;50.234;19.292;2022-12-07T07:05:18;98041.90;;;1.35;85.73
69127;BME280;56688;50.234;19.292;2022-12-07T07:07:45;98042.04;;;1.36;85.78
69127;BME280;56688;50.234;19.292;2022-12-07T07:10:32;98034.64;;;1.34;85.79
69127;BME280;56688;50.234;19.292;2022-12-07T07:12:58;98037.23;;;1.36;86.08
69127;BME280;56688;50.234;19.292;2022-12-07T07:15:25;98040.95;;;1.38;86.02
69127;BME280;56688;50.234;19.292;2022-12-07T07:17:53;98043.29;;;1.40;85.91
69127;BME280;56688;50.234;19.292;2022-12-07T07:20:20;98041.80;;;1.43;85.97
69127;BME280;56688;50.234;19.292;2022-12-07T07:22:48;98038.23;;;1.43;85.87
69127;BME280;56688;50.234;19.292;2022-12-07T07:25:15;98043.64;;;1.44;85.84
69127;BME280;56688;50.234;19.292;2022-12-07T07:27:42;98041.48;;;1.42;85.59
69127;BME280;56688;50.234;19.292;2022-12-07T07:30:09;98045.54;;;1.44;85.65
69127;BME280;56688;50.234;19.292;2022-12-07T07:32:36;98044.89;;;1.45;85.87
69127;BME280;56688;50.234;19.292;2022-12-07T07:35:03;98046.08;;;1.45;85.86
69127;BME280;56688;50.234;19.292;2022-12-07T07:37:30;98045.01;;;1.46;85.66
69127;BME280;56688;50.234;19.292;2022-12-07T07:39:57;98044.35;;;1.43;85.73
69127;BME280;56688;50.234;19.292;2022-12-07T07:42:23;98047.02;;;1.45;85.68
69127;BME280;56688;50.234;19.292;2022-12-07T07:44:50;98046.27;;;1.46;85.83
69127;BME280;56688;50.234;19.292;2022-12-07T07:47:17;98049.83;;;1.48;85.68
69127;BME280;56688;50.234;19.292;2022-12-07T07:49:44;98052.85;;;1.50;85.66
69127;BME280;56688;50.234;19.292;2022-12-07T07:52:14;98057.36;;;1.51;85.67
69127;BME280;56688;50.234;19.292;2022-12-07T07:54:40;98055.32;;;1.50;85.53
69127;BME280;56688;50.234;19.292;2022-12-07T07:57:07;98059.27;;;1.51;85.63
69127;BME280;56688;50.234;19.292;2022-12-07T07:59:34;98054.25;;;1.52;85.61
69127;BME280;56688;50.234;19.292;2022-12-07T08:02:01;98053.63;;;1.55;85.43
69127;BME280;56688;50.234;19.292;2022-12-07T08:04:28;98059.11;;;1.58;85.65
69127;BME280;56688;50.234;19.292;2022-12-07T08:06:54;98057.27;;;1.61;85.45
69127;BME280;56688;50.234;19.292;2022-12-07T08:09:21;98057.45;;;1.63;85.52
69127;BME280;56688;50.234;19.292;2022-12-07T08:11:48;98057.88;;;1.65;85.46
69127;BME280;56688;50.234;19.292;2022-12-07T08:14:15;98060.73;;;1.69;85.24
69127;BME280;56688;50.234;19.292;2022-12-07T08:16:42;98060.18;;;1.73;85.07
69127;BME280;56688;50.234;19.292;2022-12-07T08:19:08;98059.65;;;1.77;85.47
69127;BME280;56688;50.234;19.292;2022-12-07T08:21:35;98058.73;;;1.81;85.20
69127;BME280;56688;50.234;19.292;2022-12-07T08:24:02;98061.86;;;1.83;85.23
69127;BME280;56688;50.234;19.292;2022-12-07T08:26:29;98063.04;;;1.86;85.24
69127;BME280;56688;50.234;19.292;2022-12-07T08:28:56;98064.36;;;1.90;85.35
69127;BME280;56688;50.234;19.292;2022-12-07T08:31:22;98068.33;;;1.95;85.13
69127;BME280;56688;50.234;19.292;2022-12-07T08:33:49;98073.63;;;2.00;84.70
69127;BME280;56688;50.234;19.292;2022-12-07T08:36:17;98078.86;;;2.02;84.72
69127;BME280;56688;50.234;19.292;2022-12-07T08:38:44;98077.23;;;2.04;84.78
69127;BME280;56688;50.234;19.292;2022-12-07T08:41:31;98071.71;;;2.07;84.53
69127;BME280;56688;50.234;19.292;2022-12-07T08:43:58;98078.46;;;2.10;84.70
69127;BME280;56688;50.234;19.292;2022-12-07T08:46:31;98079.68;;;2.14;84.57
69127;BME280;56688;50.234;19.292;2022-12-07T08:49:06;98077.80;;;2.17;84.58
69127;BME280;56688;50.234;19.292;2022-12-07T08:51:35;98076.14;;;2.18;84.59
69127;BME280;56688;50.234;19.292;2022-12-07T08:54:04;98083.31;;;2.18;84.51
69127;BME280;56688;50.234;19.292;2022-12-07T08:56:32;98080.05;;;2.17;84.36
69127;BME280;56688;50.234;19.292;2022-12-07T08:58:59;98082.05;;;2.17;84.25
69127;BME280;56688;50.234;19.292;2022-12-07T09:01:26;98080.16;;;2.19;84.19
69127;BME280;56688;50.234;19.292;2022-12-07T09:03:53;98079.94;;;2.24;84.52
69127;BME280;56688;50.234;19.292;2022-12-07T09:06:20;98079.73;;;2.30;84.37
69127;BME280;56688;50.234;19.292;2022-12-07T09:08:50;98079.14;;;2.33;84.48
69127;BME280;56688;50.234;19.292;2022-12-07T09:11:17;98082.39;;;2.35;84.31
69127;BME280;56688;50.234;19.292;2022-12-07T09:13:49;98083.64;;;2.35;84.18
69127;BME280;56688;50.234;19.292;2022-12-07T09:16:16;98079.80;;;2.33;83.89
69127;BME280;56688;50.234;19.292;2022-12-07T09:18:43;98079.60;;;2.32;83.96
69127;BME280;56688;50.234;19.292;2022-12-07T09:21:10;98077.02;;;2.31;84.16
69127;BME280;56688;50.234;19.292;2022-12-07T09:23:36;98072.77;;;2.29;84.12
69127;BME280;56688;50.234;19.292;2022-12-07T09:26:04;98070.94;;;2.28;83.94
69127;BME280;56688;50.234;19.292;2022-12-07T09:28:36;98076.40;;;2.26;84.06
69127;BME280;56688;50.234;19.292;2022-12-07T09:31:04;98070.85;;;2.26;84.29
69127;BME280;56688;50.234;19.292;2022-12-07T09:33:55;98064.14;;;2.26;84.15
69127;BME280;56688;50.234;19.292;2022-12-07T09:36:22;98065.83;;;2.27;84.52
69127;BME280;56688;50.234;19.292;2022-12-07T09:38:49;98063.80;;;2.26;84.38
69127;BME280;56688;50.234;19.292;2022-12-07T09:41:16;98052.36;;;2.26;84.29
69127;BME280;56688;50.234;19.292;2022-12-07T09:43:43;98058.73;;;2.31;84.44
69127;BME280;56688;50.234;19.292;2022-12-07T09:46:14;98059.29;;;2.36;84.47
69127;BME280;56688;50.234;19.292;2022-12-07T09:48:42;98056.70;;;2.42;84.75
69127;BME280;56688;50.234;19.292;2022-12-07T09:51:16;98049.95;;;2.47;84.23
69127;BME280;56688;50.234;19.292;2022-12-07T09:53:51;98048.19;;;2.49;84.17
69127;BME280;56688;50.234;19.292;2022-12-07T09:56:19;98048.55;;;2.50;84.38
69127;BME280;56688;50.234;19.292;2022-12-07T09:58:47;98033.74;;;2.46;84.29
69127;BME280;56688;50.234;19.292;2022-12-07T10:01:17;98040.88;;;2.56;84.42
69127;BME280;56688;50.234;19.292;2022-12-07T10:03:51;98035.52;;;2.62;84.63
69127;BME280;56688;50.234;19.292;2022-12-07T10:06:18;98032.58;;;2.70;84.50
69127;BME280;56688;50.234;19.292;2022-12-07T10:08:45;98036.70;;;2.75;83.99
69127;BME280;56688;50.234;19.292;2022-12-07T10:11:12;98028.23;;;2.77;83.87
69127;BME280;56688;50.234;19.292;2022-12-07T10:19:31;98015.86;;;2.95;83.74
69127;BME280;56688;50.234;19.292;2022-12-07T10:22:16;98008.36;;;3.00;83.42
69127;BME280;56688;50.234;19.292;2022-12-07T10:24:46;98008.43;;;3.02;83.52
69127;BME280;56688;50.234;19.292;2022-12-07T10:29:50;98005.27;;;3.08;83.52
69127;BME280;56688;50.234;19.292;2022-12-07T10:34:44;98000.66;;;3.21;83.56
69127;BME280;56688;50.234;19.292;2022-12-07T10:37:19;97992.19;;;3.31;83.48
69127;BME280;56688;50.234;19.292;2022-12-07T10:39:49;97992.92;;;3.43;83.37
69127;BME280;56688;50.234;19.292;2022-12-07T10:42:25;97984.91;;;3.52;82.84
69127;BME280;56688;50.234;19.292;2022-12-07T10:45:09;97991.40;;;3.61;82.69
69127;BME280;56688;50.234;19.292;2022-12-07T10:47:38;97987.83;;;3.65;81.97
69127;BME280;56688;50.234;19.292;2022-12-07T10:50:18;97982.31;;;3.66;81.79
69127;BME280;56688;50.234;19.292;2022-12-07T10:55:33;97977.06;;;3.74;81.53
69127;BME280;56688;50.234;19.292;2022-12-07T10:58:25;97980.04;;;3.78;81.31
69127;BME280;56688;50.234;19.292;2022-12-07T11:01:04;97974.71;;;3.76;80.93
69127;BME280;56688;50.234;19.292;2022-12-07T11:03:41;97979.67;;;3.73;80.94
69127;BME280;56688;50.234;19.292;2022-12-07T11:09:04;97975.67;;;3.67;80.49
69127;BME280;56688;50.234;19.292;2022-12-07T11:11:46;97975.34;;;3.63;80.51
69127;BME280;56688;50.234;19.292;2022-12-07T11:17:07;97976.71;;;3.53;81.06
69127;BME280;56688;50.234;19.292;2022-12-07T11:22:36;97969.99;;;3.52;80.97
69127;BME280;56688;50.234;19.292;2022-12-07T11:25:27;97970.39;;;3.52;81.38
69127;BME280;56688;50.234;19.292;2022-12-07T11:30:34;97960.27;;;3.56;81.01
69127;BME280;56688;50.234;19.292;2022-12-07T11:33:15;97951.46;;;3.54;80.65
69127;BME280;56688;50.234;19.292;2022-12-07T11:35:53;97950.73;;;3.54;80.49
69127;BME280;56688;50.234;19.292;2022-12-07T11:41:12;97952.55;;;3.59;80.45
69127;BME280;56688;50.234;19.292;2022-12-07T11:43:50;97949.10;;;3.60;80.03
69127;BME280;56688;50.234;19.292;2022-12-07T11:46:20;97946.83;;;3.60;80.01
69127;BME280;56688;50.234;19.292;2022-12-07T11:49:07;97941.92;;;3.61;79.87
69127;BME280;56688;50.234;19.292;2022-12-07T11:51:38;97932.98;;;3.65;80.02
69127;BME280;56688;50.234;19.292;2022-12-07T11:54:19;97932.93;;;3.68;80.20
69127;BME280;56688;50.234;19.292;2022-12-07T11:56:50;97930.27;;;3.70;80.21
69127;BME280;56688;50.234;19.292;2022-12-07T11:59:25;97933.27;;;3.69;79.95
69127;BME280;56688;50.234;19.292;2022-12-07T12:02:03;97936.97;;;3.65;79.94
69127;BME280;56688;50.234;19.292;2022-12-07T12:04:54;97936.84;;;3.63;79.89
69127;BME280;56688;50.234;19.292;2022-12-07T12:07:26;97934.53;;;3.65;79.69
69127;BME280;56688;50.234;19.292;2022-12-07T12:10:20;97932.32;;;3.66;78.93
69127;BME280;56688;50.234;19.292;2022-12-07T12:21:02;97942.88;;;3.71;78.00
69127;BME280;56688;50.234;19.292;2022-12-07T12:23:50;97937.05;;;3.74;76.77
69127;BME280;56688;50.234;19.292;2022-12-07T12:26:23;97926.75;;;3.67;76.35
69127;BME280;56688;50.234;19.292;2022-12-07T12:28:54;97940.64;;;3.74;76.62
69127;BME280;56688;50.234;19.292;2022-12-07T12:33:52;97939.48;;;3.78;76.13
69127;BME280;56688;50.234;19.292;2022-12-07T12:36:21;97936.67;;;3.79;76.54
69127;BME280;56688;50.234;19.292;2022-12-07T12:54:22;97920.23;;;3.75;75.46
69127;BME280;56688;50.234;19.292;2022-12-07T12:59:29;97917.31;;;3.69;75.19
69127;BME280;56688;50.234;19.292;2022-12-07T13:02:16;97917.23;;;3.71;75.15
69127;BME280;56688;50.234;19.292;2022-12-07T13:15:44;97912.30;;;3.69;75.62
69127;BME280;56688;50.234;19.292;2022-12-07T13:18:24;97908.48;;;3.71;75.30
69127;BME280;56688;50.234;19.292;2022-12-07T13:20:56;97909.50;;;3.73;74.86
69127;BME280;56688;50.234;19.292;2022-12-07T13:23:27;97912.30;;;3.77;74.97
69127;BME280;56688;50.234;19.292;2022-12-07T13:31:40;97917.62;;;3.77;74.54
69127;BME280;56688;50.234;19.292;2022-12-07T13:37:10;97919.97;;;3.73;74.25
69127;BME280;56688;50.234;19.292;2022-12-07T13:39:57;97922.89;;;3.68;73.86
69127;BME280;56688;50.234;19.292;2022-12-07T13:42:26;97925.63;;;3.68;74.23
69127;BME280;56688;50.234;19.292;2022-12-07T13:44:54;97930.56;;;3.67;74.70
69127;BME280;56688;50.234;19.292;2022-12-07T13:47:40;97932.36;;;3.67;74.44
69127;BME280;56688;50.234;19.292;2022-12-07T13:50:24;97934.83;;;3.67;74.67
69127;BME280;56688;50.234;19.292;2022-12-07T13:52:55;97928.33;;;3.67;74.88
69127;BME280;56688;50.234;19.292;2022-12-07T13:55:23;97926.08;;;3.66;74.71
69127;BME280;56688;50.234;19.292;2022-12-07T13:57:51;97918.00;;;3.59;74.84
69127;BME280;56688;50.234;19.292;2022-12-07T14:00:21;97929.45;;;3.61;74.45
69127;BME280;56688;50.234;19.292;2022-12-07T14:02:59;97930.58;;;3.60;74.17
69127;BME280;56688;50.234;19.292;2022-12-07T14:05:29;97928.66;;;3.60;73.76
69127;BME280;56688;50.234;19.292;2022-12-07T14:08:02;97932.81;;;3.59;73.32
69127;BME280;56688;50.234;19.292;2022-12-07T14:10:30;97933.96;;;3.56;72.83
69127;BME280;56688;50.234;19.292;2022-12-07T14:12:58;97933.52;;;3.52;71.49
69127;BME280;56688;50.234;19.292;2022-12-07T14:15:28;97937.95;;;3.49;72.02
69127;BME280;56688;50.234;19.292;2022-12-07T14:17:58;97938.08;;;3.46;71.79
69127;BME280;56688;50.234;19.292;2022-12-07T14:22:56;97937.42;;;3.43;70.95
69127;BME280;56688;50.234;19.292;2022-12-07T14:25:25;97936.39;;;3.42;69.48
69127;BME280;56688;50.234;19.292;2022-12-07T14:27:56;97940.02;;;3.39;69.37
69127;BME280;56688;50.234;19.292;2022-12-07T14:30:33;97941.23;;;3.35;68.71
69127;BME280;56688;50.234;19.292;2022-12-07T14:33:03;97946.02;;;3.32;69.62
69127;BME280;56688;50.234;19.292;2022-12-07T14:35:32;97947.23;;;3.30;69.46
69127;BME280;56688;50.234;19.292;2022-12-07T14:37:59;97954.54;;;3.29;69.21
69127;BME280;56688;50.234;19.292;2022-12-07T14:40:28;97949.88;;;3.27;68.74
69127;BME280;56688;50.234;19.292;2022-12-07T14:43:00;97953.66;;;3.24;69.11
69127;BME280;56688;50.234;19.292;2022-12-07T14:45:28;97958.60;;;3.22;69.11
69127;BME280;56688;50.234;19.292;2022-12-07T14:47:55;97960.67;;;3.19;69.24
69127;BME280;56688;50.234;19.292;2022-12-07T14:50:45;97960.73;;;3.17;70.06
69127;BME280;56688;50.234;19.292;2022-12-07T14:53:39;97961.11;;;3.17;70.01
69127;BME280;56688;50.234;19.292;2022-12-07T14:56:07;97964.64;;;3.17;69.97
69127;BME280;56688;50.234;19.292;2022-12-07T14:58:34;97965.91;;;3.15;69.77
69127;BME280;56688;50.234;19.292;2022-12-07T15:01:01;97972.94;;;3.13;70.10
69127;BME280;56688;50.234;19.292;2022-12-07T15:03:28;97973.15;;;3.09;69.82
69127;BME280;56688;50.234;19.292;2022-12-07T15:05:56;97971.70;;;3.08;69.70
69127;BME280;56688;50.234;19.292;2022-12-07T15:08:23;97977.51;;;3.08;69.54